Time;durP1;ratioP1;P1;durP2;ratioP2;P2;SDS_P1;SDS_P2;PMS_P1;PMS_P2;Temp;Humidity;BMP_temperature;BMP_pressure;BME280_temperature;BME280_humidity;BME280_pressure;Samples;Min_cycle;Max_cycle;Signal;HPM_P1;HPM_P2
2022/04/14 00:01:56;;;;;;;4.57;2.27;;;10.40;92.20;;;;;;4183925;28;20630;-78
2022/04/14 00:03:57;;;;;;;5.53;2.53;;;10.50;92.20;;;;;;4201021;28;20623;-77
2022/04/14 00:05:57;;;;;;;5.63;1.80;;;10.50;92.20;;;;;;4200561;28;20576;-77
2022/04/14 00:07:58;;;;;;;4.47;2.03;;;10.60;91.90;;;;;;4199388;28;20252;-77
2022/04/14 00:09:59;;;;;;;7.30;2.10;;;10.60;91.90;;;;;;4200420;28;20218;-77
2022/04/14 00:11:59;;;;;;;7.70;2.50;;;10.50;91.90;;;;;;4198799;28;20184;-77
2022/04/14 00:14:01;;;;;;;3.50;2.10;;;10.50;92.20;;;;;;4198574;28;20183;-77
2022/04/14 00:16:01;;;;;;;5.70;2.40;;;10.50;92.20;;;;;;4198793;28;20190;-78
2022/04/14 00:18:02;;;;;;;3.33;1.93;;;10.50;92.40;;;;;;4197948;28;20278;-77
2022/04/14 00:20:08;;;;;;;4.07;1.63;;;10.50;92.40;;;;;;4200076;28;20291;-77
2022/04/14 00:22:09;;;;;;;5.30;2.50;;;10.50;92.40;;;;;;4200136;28;20185;-77
2022/04/14 00:24:10;;;;;;;4.30;2.23;;;10.50;92.70;;;;;;4200066;28;20176;-77
2022/04/14 00:26:11;;;;;;;7.10;1.90;;;10.40;93.00;;;;;;4199392;28;20282;-77
2022/04/14 00:28:12;;;;;;;6.13;2.17;;;10.40;93.10;;;;;;4198514;28;20796;-77
2022/04/14 00:30:13;;;;;;;5.87;2.27;;;10.50;92.70;;;;;;4199111;28;20194;-76
2022/04/14 00:32:13;;;;;;;5.93;2.33;;;10.50;92.60;;;;;;4199755;28;20194;-77
2022/04/14 00:34:14;;;;;;;4.50;2.60;;;10.50;92.60;;;;;;4198531;28;20235;-76
2022/04/14 00:36:15;;;;;;;7.03;2.07;;;10.40;92.80;;;;;;4197398;28;20214;-76
2022/04/14 00:38:16;;;;;;;7.87;2.20;;;10.40;92.90;;;;;;4198390;28;20211;-76
2022/04/14 00:40:16;;;;;;;8.53;2.97;;;10.50;92.70;;;;;;4199786;28;20183;-76
2022/04/14 00:42:17;;;;;;;4.37;2.10;;;10.60;92.30;;;;;;4198495;28;20191;-77
2022/04/14 00:44:18;;;;;;;9.97;3.17;;;10.60;92.30;;;;;;4198696;28;20611;-76
2022/04/14 00:46:18;;;;;;;5.23;2.20;;;10.60;92.20;;;;;;4197410;28;20197;-76
2022/04/14 00:48:19;;;;;;;7.20;2.40;;;10.60;92.20;;;;;;4198165;28;20224;-76
2022/04/14 00:50:20;;;;;;;7.30;2.50;;;10.50;92.50;;;;;;4197636;28;20221;-76
2022/04/14 00:52:22;;;;;;;4.80;2.70;;;10.30;92.90;;;;;;4199101;28;20194;-76
2022/04/14 00:54:23;;;;;;;6.90;2.27;;;10.40;93.00;;;;;;4198182;28;20595;-76
2022/04/14 00:56:23;;;;;;;7.27;2.80;;;10.40;93.00;;;;;;4199300;28;20211;-76
2022/04/14 00:58:24;;;;;;;9.87;2.33;;;10.50;92.90;;;;;;4199963;28;20303;-75
2022/04/14 01:00:25;;;;;;;7.83;2.50;;;10.50;92.80;;;;;;4198164;28;20190;-76
2022/04/14 01:02:26;;;;;;;5.17;2.50;;;10.50;92.80;;;;;;4200066;28;20321;-76
2022/04/14 01:04:27;;;;;;;8.53;2.60;;;10.60;92.40;;;;;;4198291;28;20180;-76
2022/04/14 01:06:28;;;;;;;4.50;2.60;;;10.60;92.40;;;;;;4197741;28;20233;-76
2022/04/14 01:08:32;;;;;;;5.10;2.30;;;10.60;92.20;;;;;;4181741;28;20193;-76
2022/04/14 01:10:35;;;;;;;3.60;2.40;;;10.60;92.50;;;;;;4198763;28;20266;-76
2022/04/14 01:12:36;;;;;;;4.33;2.00;;;10.50;92.80;;;;;;4197690;28;20564;-76
2022/04/14 01:14:37;;;;;;;7.17;2.50;;;10.50;92.90;;;;;;4184930;28;20270;-76
2022/04/14 01:16:38;;;;;;;5.07;2.80;;;10.60;92.60;;;;;;4180853;28;20724;-76
2022/04/14 01:18:39;;;;;;;9.03;2.43;;;10.50;92.50;;;;;;4182283;28;20239;-76
2022/04/14 01:20:41;;;;;;;4.50;2.30;;;10.40;92.80;;;;;;4182308;28;20204;-76
2022/04/14 01:22:57;;;;;;;5.40;2.20;;;10.20;93.30;;;;;;4182884;28;20185;-76
2022/04/14 01:24:59;;;;;;;3.97;2.40;;;10.00;94.00;;;;;;4180674;28;20176;-75
2022/04/14 01:27:00;;;;;;;5.67;2.40;;;9.90;94.40;;;;;;4181702;28;20228;-76
2022/04/14 01:29:03;;;;;;;4.73;2.20;;;9.80;95.60;;;;;;4181467;28;20191;-76
2022/04/14 01:31:04;;;;;;;6.67;2.37;;;9.70;96.50;;;;;;4180296;28;20263;-76
2022/04/14 01:33:05;;;;;;;6.00;2.33;;;9.70;97.00;;;;;;4180626;28;20427;-76
2022/04/14 01:35:06;;;;;;;7.20;2.37;;;9.80;96.00;;;;;;4181618;28;20190;-76
2022/04/14 01:37:07;;;;;;;6.97;2.60;;;9.80;96.50;;;;;;4180642;28;20704;-76
2022/04/14 01:39:11;;;;;;;9.83;2.77;;;9.80;95.80;;;;;;4179497;28;20314;-75
2022/04/14 01:41:12;;;;;;;5.33;2.53;;;9.90;95.80;;;;;;4179952;28;20180;-75
2022/04/14 01:43:13;;;;;;;3.47;2.20;;;9.70;96.00;;;;;;4179769;28;20940;-74
2022/04/14 01:45:13;;;;;;;4.53;2.10;;;9.60;96.40;;;;;;4179312;28;20210;-74
2022/04/14 01:47:14;;;;;;;5.27;2.40;;;9.50;96.90;;;;;;4178991;28;20207;-75
2022/04/14 01:49:15;;;;;;;6.60;2.87;;;9.40;97.40;;;;;;4180106;28;20196;-75
2022/04/14 01:51:15;;;;;;;4.33;2.30;;;9.40;97.90;;;;;;4178220;28;20189;-75
2022/04/14 01:53:16;;;;;;;6.80;2.60;;;9.40;98.40;;;;;;4179719;28;20242;-75
2022/04/14 01:55:17;;;;;;;4.53;2.40;;;9.50;98.30;;;;;;4179221;28;20193;-75
2022/04/14 01:57:17;;;;;;;4.90;2.47;;;9.40;98.00;;;;;;4178428;28;20602;-75
2022/04/14 01:59:18;;;;;;;5.83;2.30;;;9.40;98.60;;;;;;4179580;28;20234;-74
2022/04/14 02:01:20;;;;;;;5.20;2.80;;;9.40;98.60;;;;;;4162048;28;20177;-74
2022/04/14 02:03:20;;;;;;;5.33;2.50;;;9.40;98.50;;;;;;4194973;28;20266;-75
2022/04/14 02:05:21;;;;;;;4.73;2.20;;;9.40;98.70;;;;;;4187367;28;20188;-75
2022/04/14 02:07:22;;;;;;;6.67;2.47;;;9.50;98.70;;;;;;4196096;28;20236;-74
2022/04/14 02:09:22;;;;;;;3.23;2.10;;;9.60;98.20;;;;;;4194776;28;20184;-75
2022/04/14 02:11:23;;;;;;;8.73;2.30;;;9.70;97.40;;;;;;4194896;28;20216;-75
2022/04/14 02:13:23;;;;;;;9.27;2.57;;;9.70;96.80;;;;;;4196155;28;20180;-75
2022/04/14 02:15:24;;;;;;;4.97;2.13;;;9.70;96.60;;;;;;4194228;28;20198;-74
2022/04/14 02:17:25;;;;;;;3.10;2.50;;;9.80;96.40;;;;;;4195846;28;20300;-75
2022/04/14 02:19:26;;;;;;;6.93;2.60;;;9.80;96.20;;;;;;4195656;28;20222;-74
2022/04/14 02:21:26;;;;;;;9.23;2.27;;;9.80;96.30;;;;;;4194500;28;20164;-75
2022/04/14 02:23:27;;;;;;;5.00;2.00;;;9.80;96.40;;;;;;4194659;28;20186;-75
2022/04/14 02:25:28;;;;;;;2.37;1.83;;;9.80;96.10;;;;;;4194001;28;20206;-74
2022/04/14 02:27:28;;;;;;;4.17;2.17;;;9.90;96.00;;;;;;4194658;28;20309;-74
2022/04/14 02:29:29;;;;;;;3.97;2.10;;;9.90;95.50;;;;;;4195952;28;20553;-74
2022/04/14 02:31:30;;;;;;;3.80;2.27;;;10.00;95.20;;;;;;4194560;28;20585;-74
2022/04/14 02:33:31;;;;;;;6.30;2.27;;;10.00;94.80;;;;;;4194406;28;20182;-75
2022/04/14 02:35:31;;;;;;;4.73;2.83;;;10.10;94.60;;;;;;4195148;28;20618;-75
2022/04/14 02:37:32;;;;;;;4.70;2.07;;;10.10;94.50;;;;;;4194442;28;20214;-75
2022/04/14 02:39:32;;;;;;;5.37;2.50;;;10.10;94.30;;;;;;4195720;28;20215;-74
2022/04/14 02:41:33;;;;;;;4.23;2.10;;;10.20;94.20;;;;;;4194258;28;20183;-74
2022/04/14 02:43:37;;;;;;;6.00;2.27;;;10.20;94.00;;;;;;4194364;28;20525;-74
2022/04/14 02:45:38;;;;;;;6.80;2.30;;;10.30;94.00;;;;;;4194988;28;20282;-74
2022/04/14 02:47:39;;;;;;;6.00;2.33;;;10.40;93.60;;;;;;4194078;28;20199;-74
2022/04/14 02:49:40;;;;;;;4.13;2.10;;;10.30;93.80;;;;;;4177527;28;20190;-74
2022/04/14 02:51:41;;;;;;;5.93;2.27;;;10.40;93.60;;;;;;4194240;28;20194;-74
2022/04/14 02:53:41;;;;;;;5.20;2.30;;;10.50;93.10;;;;;;4195393;28;20184;-74
2022/04/14 02:55:42;;;;;;;4.57;2.00;;;10.50;92.90;;;;;;4193479;28;20183;-74
2022/04/14 02:57:43;;;;;;;8.37;2.07;;;10.40;93.30;;;;;;4195389;28;20970;-74
2022/04/14 02:59:43;;;;;;;13.20;2.60;;;10.50;93.30;;;;;;4194001;28;20186;-74
2022/04/14 03:01:44;;;;;;;7.00;2.23;;;10.50;93.40;;;;;;4194125;28;20265;-74
2022/04/14 03:03:45;;;;;;;6.67;2.47;;;10.50;93.00;;;;;;4194046;28;20248;-74
2022/04/14 03:05:46;;;;;;;11.30;2.53;;;10.30;93.40;;;;;;4176637;28;20184;-74
2022/04/14 03:07:47;;;;;;;4.13;2.10;;;10.40;93.60;;;;;;4194851;28;20198;-74
2022/04/14 03:09:48;;;;;;;6.53;2.00;;;10.40;93.40;;;;;;4195125;28;20179;-74
2022/04/14 03:11:49;;;;;;;3.70;2.20;;;10.40;93.10;;;;;;4193987;28;20175;-74
2022/04/14 03:13:49;;;;;;;4.00;2.47;;;10.40;93.10;;;;;;4188088;28;20276;-73
2022/04/14 03:15:51;;;;;;;4.17;2.07;;;10.30;93.60;;;;;;4178006;28;20832;-73
2022/04/14 03:17:51;;;;;;;8.27;2.43;;;10.30;93.90;;;;;;4177470;28;20187;-75
2022/04/14 03:19:52;;;;;;;6.33;2.53;;;10.10;94.20;;;;;;4178948;28;20191;-74
2022/04/14 03:21:53;;;;;;;5.03;2.07;;;9.90;94.70;;;;;;4178890;28;20197;-73
2022/04/14 03:23:53;;;;;;;6.77;2.37;;;9.90;94.70;;;;;;4177334;28;20182;-73
2022/04/14 03:25:54;;;;;;;5.20;2.50;;;10.00;94.30;;;;;;4178147;28;20182;-72
2022/04/14 03:27:54;;;;;;;4.07;2.30;;;9.90;94.40;;;;;;4177482;28;20210;-73
2022/04/14 03:29:55;;;;;;;10.97;2.47;;;9.90;94.70;;;;;;4178614;28;20186;-73
2022/04/14 03:31:56;;;;;;;4.67;2.60;;;10.00;94.50;;;;;;4178926;28;20194;-73
2022/04/14 03:33:56;;;;;;;4.47;2.20;;;10.00;94.50;;;;;;4163994;28;20199;-73
2022/04/14 03:35:57;;;;;;;5.63;1.90;;;10.00;94.50;;;;;;4181155;28;20548;-73
2022/04/14 03:37:58;;;;;;;5.87;2.47;;;10.00;94.50;;;;;;4181739;28;20180;-73
2022/04/14 03:39:59;;;;;;;4.70;2.63;;;9.90;94.70;;;;;;4181929;28;20819;-73
2022/04/14 03:41:59;;;;;;;5.03;2.07;;;10.00;95.00;;;;;;4180698;28;20191;-73
2022/04/14 03:44:00;;;;;;;6.27;2.90;;;10.10;94.40;;;;;;4180707;28;20590;-73
2022/04/14 03:46:02;;;;;;;5.67;2.23;;;10.10;94.00;;;;;;4180012;28;20622;-73
2022/04/14 03:48:04;;;;;;;6.20;3.23;;;10.20;93.80;;;;;;4180648;28;20543;-73
2022/04/14 03:50:05;;;;;;;6.20;2.40;;;10.20;93.70;;;;;;4181815;28;20263;-73
2022/04/14 03:52:06;;;;;;;4.10;2.40;;;10.20;93.50;;;;;;4181544;28;20186;-73
2022/04/14 03:54:07;;;;;;;7.80;2.50;;;10.30;93.50;;;;;;4181617;28;20243;-73
2022/04/14 03:56:08;;;;;;;4.80;2.07;;;10.30;93.60;;;;;;4180969;28;20238;-72
2022/04/14 03:58:09;;;;;;;5.40;2.40;;;10.30;93.60;;;;;;4180440;28;20671;-73
2022/04/14 04:00:10;;;;;;;10.30;2.33;;;10.30;93.50;;;;;;4180238;28;20994;-73
2022/04/14 04:02:11;;;;;;;7.40;2.37;;;10.30;93.50;;;;;;4171248;28;20191;-73
2022/04/14 04:04:11;;;;;;;3.03;2.40;;;10.30;93.50;;;;;;4196531;28;20187;-73
2022/04/14 04:06:12;;;;;;;4.80;2.50;;;10.30;93.60;;;;;;4179241;28;20210;-73
2022/04/14 04:08:13;;;;;;;8.97;3.00;;;10.30;93.50;;;;;;4197675;28;20184;-73
2022/04/14 04:10:13;;;;;;;10.83;2.80;;;10.30;93.60;;;;;;4196529;28;20178;-73
2022/04/14 04:12:14;;;;;;;7.27;2.53;;;10.20;94.10;;;;;;4197730;28;20190;-73
2022/04/14 04:14:15;;;;;;;14.20;2.50;;;10.20;94.40;;;;;;4197760;28;20829;-73
2022/04/14 04:16:15;;;;;;;6.87;2.73;;;10.30;94.10;;;;;;4197072;28;20725;-73
2022/04/14 04:18:16;;;;;;;9.97;3.20;;;10.20;94.10;;;;;;4200423;28;20507;-73
2022/04/14 04:20:19;;;;;;;5.87;2.40;;;10.20;94.30;;;;;;4183293;28;20264;-73
2022/04/14 04:22:19;;;;;;;7.93;2.63;;;10.20;94.90;;;;;;4200266;28;20257;-73
2022/04/14 04:24:20;;;;;;;13.87;3.17;;;10.30;94.80;;;;;;4201484;28;20183;-73
2022/04/14 04:26:20;;;;;;;6.97;2.80;;;10.40;94.60;;;;;;4200949;28;20222;-73
2022/04/14 04:28:21;;;;;;;4.97;2.30;;;10.40;94.80;;;;;;4200080;28;20185;-74
2022/04/14 04:30:22;;;;;;;7.43;2.80;;;10.50;94.60;;;;;;4196192;28;20183;-73
2022/04/14 04:32:23;;;;;;;6.13;2.53;;;10.50;94.20;;;;;;4197530;28;20612;-73
2022/04/14 04:34:24;;;;;;;7.30;2.90;;;10.50;94.30;;;;;;4196088;28;20654;-74
2022/04/14 04:36:25;;;;;;;10.63;2.70;;;10.20;94.50;;;;;;4196734;28;20207;-73
2022/04/14 04:38:25;;;;;;;4.40;2.87;;;10.20;95.40;;;;;;4195812;28;20221;-73
2022/04/14 04:40:26;;;;;;;8.83;3.37;;;10.20;95.60;;;;;;4197144;28;20215;-73
2022/04/14 04:42:27;;;;;;;7.23;2.90;;;10.10;95.50;;;;;;4197073;28;20183;-73
2022/04/14 04:44:27;;;;;;;4.83;2.97;;;10.10;95.70;;;;;;4195402;28;20214;-73
2022/04/14 04:46:28;;;;;;;4.57;2.83;;;10.00;95.90;;;;;;4178847;28;20204;-72
2022/04/14 04:48:29;;;;;;;8.07;3.53;;;10.10;95.70;;;;;;4197217;28;20237;-74
2022/04/14 04:50:30;;;;;;;7.37;3.37;;;10.10;96.00;;;;;;4195788;28;20187;-74
2022/04/14 04:52:30;;;;;;;6.93;3.10;;;10.20;96.40;;;;;;4197027;28;20190;-74
2022/04/14 04:54:31;;;;;;;5.80;2.80;;;10.20;96.10;;;;;;4195750;28;20201;-74
2022/04/14 04:56:32;;;;;;;7.53;3.50;;;10.10;96.30;;;;;;4195002;28;20214;-74
2022/04/14 04:58:32;;;;;;;7.90;3.20;;;10.20;96.20;;;;;;4195691;28;21268;-74
2022/04/14 05:00:33;;;;;;;9.00;3.30;;;10.20;96.40;;;;;;4196967;28;20256;-74
2022/04/14 05:02:34;;;;;;;11.33;3.37;;;10.20;96.20;;;;;;4196889;28;20209;-74
2022/04/14 05:04:34;;;;;;;7.33;3.17;;;10.20;96.50;;;;;;4196968;28;20275;-74
2022/04/14 05:06:35;;;;;;;7.87;3.30;;;10.30;96.20;;;;;;4196182;28;20692;-74
2022/04/14 05:08:36;;;;;;;6.23;3.10;;;10.30;96.20;;;;;;4195644;28;20626;-74
2022/04/14 05:10:36;;;;;;;8.50;3.67;;;10.30;95.90;;;;;;4196849;28;20180;-73
2022/04/14 05:12:37;;;;;;;8.80;3.93;;;10.40;96.10;;;;;;4196788;28;20186;-74
2022/04/14 05:14:38;;;;;;;6.33;4.27;;;10.40;96.30;;;;;;4196658;28;20183;-73
2022/04/14 05:16:38;;;;;;;7.10;3.60;;;10.40;96.30;;;;;;4194526;28;20264;-74
2022/04/14 05:18:39;;;;;;;6.27;3.70;;;10.40;96.00;;;;;;4194776;28;20243;-73
2022/04/14 05:20:42;;;;;;;11.63;4.07;;;10.40;96.10;;;;;;4195242;28;20654;-74
2022/04/14 05:22:42;;;;;;;11.07;4.40;;;10.40;96.00;;;;;;4179994;28;20682;-74
2022/04/14 05:24:43;;;;;;;8.23;3.87;;;10.40;96.00;;;;;;4178762;28;20185;-73
2022/04/14 05:26:44;;;;;;;5.07;3.33;;;10.20;95.90;;;;;;4178005;28;20296;-73
2022/04/14 05:28:44;;;;;;;6.50;3.10;;;10.30;96.30;;;;;;4180213;28;20195;-75
2022/04/14 05:30:45;;;;;;;6.97;3.67;;;10.20;96.60;;;;;;4180235;28;20198;-73
2022/04/14 05:32:46;;;;;;;6.63;3.30;;;10.20;96.80;;;;;;4178681;28;20184;-73
2022/04/14 05:34:46;;;;;;;7.60;4.23;;;10.20;97.00;;;;;;4178593;28;20223;-74
2022/04/14 05:36:47;;;;;;;6.63;3.90;;;10.20;97.10;;;;;;4178028;28;20208;-73
2022/04/14 05:38:48;;;;;;;9.30;3.60;;;10.20;97.60;;;;;;4179855;28;20315;-73
2022/04/14 05:40:48;;;;;;;11.10;4.20;;;10.30;97.30;;;;;;4162044;28;20231;-73
2022/04/14 05:42:51;;;;;;;7.93;4.03;;;10.30;97.40;;;;;;4195193;28;20186;-73
2022/04/14 05:44:52;;;;;;;6.43;3.87;;;10.30;97.60;;;;;;4178641;28;20219;-73
2022/04/14 05:46:53;;;;;;;9.33;3.97;;;10.40;97.00;;;;;;4179419;28;20207;-73
2022/04/14 05:48:53;;;;;;;10.33;4.87;;;10.30;97.10;;;;;;4178297;28;20227;-73
2022/04/14 05:50:54;;;;;;;13.20;4.60;;;10.20;97.60;;;;;;4178382;28;20187;-73
2022/04/14 05:52:56;;;;;;;7.97;4.33;;;10.20;98.30;;;;;;4179610;28;20214;-73
2022/04/14 05:55:01;;;;;;;8.17;5.13;;;10.20;98.40;;;;;;4178474;28;20263;-72
2022/04/14 05:57:02;;;;;;;10.13;4.70;;;10.30;98.10;;;;;;4162274;28;20234;-73
2022/04/14 05:59:03;;;;;;;10.13;4.30;;;10.40;97.90;;;;;;4179481;28;20760;-73
2022/04/14 06:01:04;;;;;;;7.10;3.93;;;10.30;98.00;;;;;;4182958;28;20245;-73
2022/04/14 06:03:04;;;;;;;9.93;5.30;;;10.30;98.20;;;;;;4195888;28;20190;-73
2022/04/14 06:05:06;;;;;;;12.30;5.50;;;10.40;98.20;;;;;;4177356;28;20233;-73
2022/04/14 06:07:07;;;;;;;10.73;5.10;;;10.50;97.90;;;;;;4195984;28;20277;-75
2022/04/14 06:09:07;;;;;;;9.23;4.53;;;10.60;97.90;;;;;;4194430;28;20673;-72
2022/04/14 06:11:09;;;;;;;11.20;5.70;;;10.50;97.60;;;;;;4195696;28;20723;-72
2022/04/14 06:13:11;;;;;;;9.53;5.47;;;10.60;98.00;;;;;;4194367;28;20218;-72
2022/04/14 06:15:12;;;;;;;11.73;5.23;;;10.60;97.90;;;;;;4193783;28;20187;-72
2022/04/14 06:17:13;;;;;;;14.27;5.00;;;10.70;97.50;;;;;;4194552;28;20269;-72
2022/04/14 06:19:15;;;;;;;10.10;5.33;;;10.80;97.80;;;;;;4195504;28;20215;-72
2022/04/14 06:21:16;;;;;;;10.57;5.33;;;10.90;97.80;;;;;;4194394;28;20179;-71
2022/04/14 06:23:17;;;;;;;9.40;5.77;;;10.90;97.90;;;;;;4194296;28;20183;-72
2022/04/14 06:25:22;;;;;;;10.23;6.50;;;11.00;97.80;;;;;;4193802;28;20207;-72
2022/04/14 06:27:23;;;;;;;11.37;5.77;;;11.00;97.90;;;;;;4194699;28;20234;-72
2022/04/14 06:29:23;;;;;;;10.37;5.93;;;11.10;97.80;;;;;;4195582;28;20187;-72
2022/04/14 06:31:24;;;;;;;8.33;5.43;;;11.10;97.60;;;;;;4195400;28;20668;-72
2022/04/14 06:33:25;;;;;;;11.10;6.17;;;11.20;97.40;;;;;;4195597;28;20217;-73
2022/04/14 06:35:26;;;;;;;11.07;6.07;;;11.40;97.40;;;;;;4193770;28;20195;-73
2022/04/14 06:37:27;;;;;;;10.57;6.03;;;11.40;97.10;;;;;;4194239;28;20204;-73
2022/04/14 06:39:28;;;;;;;10.47;6.07;;;11.50;97.00;;;;;;4195346;28;20219;-73
2022/04/14 06:41:28;;;;;;;13.23;6.67;;;11.60;96.70;;;;;;4195390;28;20178;-73
2022/04/14 06:43:30;;;;;;;10.67;6.43;;;11.80;95.90;;;;;;4195331;28;20180;-73
2022/04/14 06:45:32;;;;;;;9.67;5.97;;;11.90;95.20;;;;;;4193451;28;20559;-73
2022/04/14 06:47:33;;;;;;;15.43;6.73;;;12.00;95.30;;;;;;4195417;28;20208;-73
2022/04/14 06:49:34;;;;;;;9.10;6.03;;;11.90;95.00;;;;;;4195477;28;20179;-73
2022/04/14 06:51:34;;;;;;;11.87;6.23;;;12.00;95.00;;;;;;4195515;28;20607;-73
2022/04/14 06:53:35;;;;;;;12.83;6.80;;;12.20;94.10;;;;;;4193949;28;20237;-72
2022/04/14 06:55:37;;;;;;;10.70;6.70;;;12.30;93.20;;;;;;4193438;28;20191;-73
2022/04/14 06:57:38;;;;;;;9.07;5.57;;;12.50;92.90;;;;;;4195235;28;20227;-73
2022/04/14 06:59:38;;;;;;;13.80;6.40;;;12.50;93.10;;;;;;4195038;28;20298;-73
2022/04/14 07:01:39;;;;;;;14.30;5.70;;;12.50;92.80;;;;;;4195179;28;20183;-72
2022/04/14 07:03:40;;;;;;;10.80;5.70;;;12.50;93.00;;;;;;4194039;28;20252;-73
2022/04/14 07:05:40;;;;;;;12.97;5.90;;;12.50;92.40;;;;;;4194600;28;20196;-73
2022/04/14 07:07:41;;;;;;;11.20;5.60;;;12.70;92.10;;;;;;4195379;28;20201;-73
2022/04/14 07:09:42;;;;;;;13.10;6.30;;;12.90;91.10;;;;;;4195020;28;20188;-72
2022/04/14 07:11:42;;;;;;;12.73;5.23;;;12.80;92.00;;;;;;4195052;28;20184;-73
2022/04/14 07:13:43;;;;;;;12.30;5.80;;;12.90;91.30;;;;;;4195028;28;20650;-73
2022/04/14 07:15:45;;;;;;;12.00;6.40;;;12.90;90.50;;;;;;4194400;28;20215;-73
2022/04/14 07:17:45;;;;;;;11.13;6.27;;;12.90;90.90;;;;;;4193169;28;20309;-73
2022/04/14 07:19:47;;;;;;;13.00;6.23;;;12.90;90.90;;;;;;4194594;28;20247;-73
2022/04/14 07:21:47;;;;;;;9.17;5.70;;;13.00;90.50;;;;;;4193839;28;20198;-72
2022/04/14 07:23:48;;;;;;;13.10;7.20;;;13.10;89.80;;;;;;4195149;28;20646;-72
2022/04/14 07:25:49;;;;;;;10.00;6.60;;;13.20;90.10;;;;;;4180372;28;20675;-73
2022/04/14 07:27:50;;;;;;;10.23;6.47;;;13.00;91.10;;;;;;4176991;28;20701;-73
2022/04/14 07:29:50;;;;;;;11.40;5.97;;;13.20;90.30;;;;;;4177154;28;20195;-73
2022/04/14 07:31:52;;;;;;;11.17;6.13;;;13.10;90.80;;;;;;4177133;28;20670;-71
2022/04/14 07:33:52;;;;;;;9.17;5.33;;;13.20;90.60;;;;;;4177138;28;20259;-72
2022/04/14 07:35:53;;;;;;;13.77;6.47;;;13.30;90.20;;;;;;4177573;28;20285;-72
2022/04/14 07:37:53;;;;;;;9.77;5.27;;;13.40;90.50;;;;;;4177192;28;20686;-71
2022/04/14 07:39:54;;;;;;;7.73;5.77;;;13.60;89.40;;;;;;4176957;28;20709;-72
2022/04/14 07:41:55;;;;;;;8.43;5.60;;;13.80;88.00;;;;;;4178196;28;20188;-73
2022/04/14 07:43:56;;;;;;;9.73;6.13;;;13.90;88.60;;;;;;4176989;28;20741;-73
2022/04/14 07:45:56;;;;;;;10.20;6.03;;;13.70;90.40;;;;;;4177261;28;20188;-73
2022/04/14 07:47:57;;;;;;;14.43;6.67;;;13.60;90.00;;;;;;4176698;28;20180;-73
2022/04/14 07:49:58;;;;;;;9.27;5.93;;;13.70;90.00;;;;;;4177066;28;20237;-73
2022/04/14 07:51:59;;;;;;;14.67;6.93;;;13.70;89.30;;;;;;4178181;28;20660;-73
2022/04/14 07:53:59;;;;;;;11.30;6.30;;;14.10;86.50;;;;;;4178176;28;20648;-73
2022/04/14 07:56:00;;;;;;;13.07;6.60;;;14.50;83.80;;;;;;4177419;28;20253;-72
2022/04/14 07:58:07;;;;;;;10.83;6.43;;;14.70;82.80;;;;;;4177907;28;20184;-73
2022/04/14 08:00:08;;;;;;;11.50;6.67;;;14.90;79.40;;;;;;4176934;28;20581;-73
2022/04/14 08:02:09;;;;;;;11.70;6.67;;;14.80;79.40;;;;;;4178053;28;20738;-73
2022/04/14 08:04:11;;;;;;;10.87;6.37;;;15.10;78.50;;;;;;4178198;28;20184;-72
2022/04/14 08:06:13;;;;;;;12.93;6.80;;;15.20;76.40;;;;;;4177519;28;20200;-73
2022/04/14 08:08:19;;;;;;;13.90;6.10;;;15.20;76.30;;;;;;4176781;28;20172;-73
2022/04/14 08:10:20;;;;;;;9.57;5.30;;;15.40;75.00;;;;;;4188893;28;20230;-73
2022/04/14 08:12:23;;;;;;;13.53;6.10;;;15.60;75.30;;;;;;4193218;28;20195;-72
2022/04/14 08:14:23;;;;;;;10.50;6.33;;;15.70;73.30;;;;;;4193178;28;20234;-72
2022/04/14 08:16:24;;;;;;;15.17;5.60;;;15.90;72.10;;;;;;4192710;28;20200;-73
2022/04/14 08:18:24;;;;;;;9.77;6.17;;;15.80;74.50;;;;;;4195480;28;20200;-73
2022/04/14 08:20:26;;;;;;;11.03;6.20;;;15.90;72.90;;;;;;4197407;28;20230;-73
2022/04/14 08:22:27;;;;;;;12.97;5.60;;;15.90;73.00;;;;;;4197484;28;20260;-71
2022/04/14 08:24:28;;;;;;;10.97;5.87;;;16.10;72.50;;;;;;4195987;28;20187;-72
2022/04/14 08:26:29;;;;;;;12.93;5.80;;;16.30;73.10;;;;;;4196924;28;20690;-72
2022/04/14 08:28:29;;;;;;;8.93;5.57;;;16.20;75.90;;;;;;4197362;28;20183;-72
2022/04/14 08:30:32;;;;;;;10.17;5.63;;;16.40;72.10;;;;;;4194256;28;20192;-72
2022/04/14 08:32:36;;;;;;;7.77;5.00;;;16.60;69.90;;;;;;4184939;28;20670;-71
2022/04/14 08:34:37;;;;;;;9.63;5.13;;;16.80;68.50;;;;;;4187458;28;20180;-72
2022/04/14 08:36:38;;;;;;;10.23;6.13;;;16.80;69.60;;;;;;4190505;28;20211;-72
2022/04/14 08:38:44;;;;;;;12.27;6.20;;;16.80;68.60;;;;;;4189587;28;20615;-71
2022/04/14 08:40:47;;;;;;;10.93;5.97;;;16.70;69.60;;;;;;4174768;28;20904;-74
2022/04/14 08:42:53;;;;;;;7.67;6.07;;;16.70;70.40;;;;;;4185476;28;20189;-74
2022/04/14 08:45:03;;;;;;;11.67;6.43;;;16.60;69.60;;;;;;4187062;28;20172;-74
2022/04/14 08:47:06;;;;;;;9.70;5.63;;;16.80;69.60;;;;;;4189584;28;20264;-73
2022/04/14 08:49:09;;;;;;;10.10;6.03;;;16.80;67.40;;;;;;4187116;28;20723;-73
2022/04/14 08:51:14;;;;;;;7.50;5.53;;;16.80;66.90;;;;;;4187104;28;20582;-73
2022/04/14 08:53:22;;;;;;;11.13;5.77;;;16.80;67.90;;;;;;4187452;28;20266;-72
2022/04/14 08:55:24;;;;;;;10.97;6.50;;;16.80;67.10;;;;;;4182446;28;20198;-72
2022/04/14 08:57:26;;;;;;;11.77;6.50;;;17.00;67.00;;;;;;4180265;28;20622;-72
2022/04/14 08:59:27;;;;;;;8.40;5.30;;;17.00;65.00;;;;;;4179180;28;20251;-72
2022/04/14 09:01:28;;;;;;;8.47;5.70;;;17.20;64.30;;;;;;4179147;28;20179;-72
2022/04/14 09:03:29;;;;;;;9.73;5.43;;;17.20;64.30;;;;;;4179187;28;20624;-72
2022/04/14 09:05:29;;;;;;;10.83;5.80;;;17.20;63.50;;;;;;4181157;28;20191;-72
2022/04/14 09:07:30;;;;;;;11.97;5.77;;;17.20;64.70;;;;;;4187299;28;20235;-72
2022/04/14 09:09:31;;;;;;;8.20;5.10;;;17.10;64.70;;;;;;4187086;28;20207;-72
2022/04/14 09:11:31;;;;;;;9.77;5.67;;;17.10;65.00;;;;;;4187875;28;20188;-72
2022/04/14 09:13:32;;;;;;;11.20;6.17;;;17.10;65.40;;;;;;4193392;28;20219;-72
2022/04/14 09:15:33;;;;;;;10.10;5.53;;;17.10;65.50;;;;;;4195974;28;20194;-73
2022/04/14 09:17:34;;;;;;;10.10;5.37;;;17.40;65.00;;;;;;4196734;28;20239;-72
2022/04/14 09:19:36;;;;;;;13.67;6.10;;;17.40;65.10;;;;;;4193081;28;20231;-74
2022/04/14 09:22:09;;;;;;;9.73;5.33;;;17.40;66.20;;;;;;4180039;28;20173;-73
2022/04/14 09:24:09;;;;;;;9.40;5.17;;;17.40;65.70;;;;;;4179072;28;20181;-73
2022/04/14 09:26:14;;;;;;;14.20;6.33;;;17.60;64.30;;;;;;4182072;28;20194;-73
2022/04/14 09:28:18;;;;;;;12.23;5.43;;;17.80;63.00;;;;;;4179541;28;20192;-73
2022/04/14 09:30:19;;;;;;;7.43;4.73;;;18.00;61.50;;;;;;4179866;28;20676;-73
2022/04/14 09:32:49;;;;;;;9.83;6.10;;;18.00;60.50;;;;;;4180216;28;20192;-73
2022/04/14 09:34:51;;;;;;;9.53;5.83;;;17.90;62.30;;;;;;4165962;28;20200;-73
2022/04/14 09:37:08;;;;;;;8.50;5.50;;;18.00;60.90;;;;;;4177978;28;20204;-73
2022/04/14 09:39:08;;;;;;;8.83;5.03;;;18.30;60.00;;;;;;4178527;28;20937;-72
2022/04/14 09:41:32;;;;;;;9.20;5.40;;;18.30;60.60;;;;;;4179996;28;20188;-74
2022/04/14 09:43:32;;;;;;;10.57;5.67;;;18.30;58.90;;;;;;4179865;28;20180;-74
2022/04/14 09:45:33;;;;;;;7.50;5.50;;;18.40;57.70;;;;;;4177950;28;20191;-73
2022/04/14 09:47:40;;;;;;;13.77;5.30;;;17.90;63.20;;;;;;4179632;28;20209;-73
2022/04/14 09:49:41;;;;;;;6.87;4.87;;;18.60;59.90;;;;;;4178324;28;20820;-74
2022/04/14 09:51:44;;;;;;;10.60;5.03;;;19.00;56.60;;;;;;4179722;28;20187;-74
2022/04/14 09:53:44;;;;;;;10.93;5.83;;;19.10;56.30;;;;;;4179717;28;20195;-74
2022/04/14 09:55:55;;;;;;;10.97;4.97;;;18.90;58.60;;;;;;4177859;28;20691;-74
2022/04/14 09:58:23;;;;;;;8.77;4.37;;;19.30;55.80;;;;;;4178357;28;20187;-74
2022/04/14 10:00:41;;;;;;;7.20;5.13;;;19.90;54.60;;;;;;4176925;28;20299;-74
2022/04/14 10:02:42;;;;;;;9.07;4.70;;;19.40;56.50;;;;;;4161759;28;20189;-74
2022/04/14 10:04:45;;;;;;;8.13;5.37;;;19.80;53.60;;;;;;4179315;28;20536;-75
2022/04/14 10:07:21;;;;;;;10.20;5.13;;;19.70;52.70;;;;;;4177669;28;20200;-74
2022/04/14 10:09:30;;;;;;;8.60;5.47;;;20.00;51.20;;;;;;4182794;28;20790;-74
2022/04/14 10:11:35;;;;;;;6.27;4.50;;;20.40;50.00;;;;;;4194574;28;20562;-74
2022/04/14 10:13:38;;;;;;;8.90;4.73;;;20.50;50.00;;;;;;4195873;28;20656;-74
2022/04/14 10:15:48;;;;;;;7.90;4.50;;;20.40;49.00;;;;;;4194305;28;20184;-76
2022/04/14 10:17:49;;;;;;;9.27;4.57;;;20.40;49.80;;;;;;4180082;28;20208;-76
2022/04/14 10:19:51;;;;;;;9.30;4.43;;;20.70;50.50;;;;;;4196919;28;20326;-77
2022/04/14 10:21:53;;;;;;;13.90;5.10;;;21.20;49.80;;;;;;4194653;28;20180;-74
2022/04/14 10:23:55;;;;;;;8.10;4.57;;;21.20;51.00;;;;;;4183662;28;20181;-78
2022/04/14 10:25:56;;;;;;;7.40;5.17;;;21.90;47.60;;;;;;4197366;28;20183;-77
2022/04/14 10:27:59;;;;;;;10.40;4.20;;;22.80;44.20;;;;;;4195160;28;20208;-76
2022/04/14 10:30:00;;;;;;;7.37;5.07;;;22.70;43.50;;;;;;4178112;28;20225;-75
2022/04/14 10:32:02;;;;;;;8.10;4.63;;;22.60;43.50;;;;;;4195446;28;20191;-77
2022/04/14 10:34:07;;;;;;;8.77;5.10;;;23.10;41.80;;;;;;4198434;28;20179;-77